sensor_id;sensor_type;location;lat;lon;timestamp;pressure;altitude;pressure_sealevel;temperature;humidity
70015;BME280;57358;51.094;6.760;2023-02-12T00:01:11;103297.88;;;6.02;100.00
70015;BME280;57358;51.094;6.760;2023-02-12T00:03:39;103281.22;;;5.89;100.00
70015;BME280;57358;51.094;6.760;2023-02-12T00:06:07;103258.47;;;5.70;100.00
70015;BME280;57358;51.094;6.760;2023-02-12T00:08:34;103331.91;;;6.19;100.00
70015;BME280;57358;51.094;6.760;2023-02-12T00:11:11;103273.38;;;5.86;100.00
70015;BME280;57358;51.094;6.760;2023-02-12T00:13:38;103333.66;;;6.20;100.00
70015;BME280;57358;51.094;6.760;2023-02-12T00:16:07;103328.44;;;6.20;100.00
70015;BME280;57358;51.094;6.760;2023-02-12T00:18:34;103341.50;;;6.20;100.00
70015;BME280;57358;51.094;6.760;2023-02-12T00:21:02;103271.56;;;5.79;100.00
70015;BME280;57358;51.094;6.760;2023-02-12T00:23:29;103328.44;;;6.20;100.00
70015;BME280;57358;51.094;6.760;2023-02-12T00:25:55;103337.09;;;6.16;100.00
70015;BME280;57358;51.094;6.760;2023-02-12T00:28:22;103337.06;;;6.13;100.00
70015;BME280;57358;51.094;6.760;2023-02-12T00:30:49;103287.25;;;5.84;100.00
70015;BME280;57358;51.094;6.760;2023-02-12T00:33:15;103279.38;;;5.79;100.00
70015;BME280;57358;51.094;6.760;2023-02-12T00:35:42;103335.34;;;6.12;100.00
70015;BME280;57358;51.094;6.760;2023-02-12T00:38:09;103339.66;;;6.10;100.00
70015;BME280;57358;51.094;6.760;2023-02-12T00:40:35;103337.06;;;6.11;100.00
70015;BME280;57358;51.094;6.760;2023-02-12T00:43:02;103285.50;;;5.79;100.00
70015;BME280;57358;51.094;6.760;2023-02-12T00:45:28;103284.59;;;5.77;100.00
70015;BME280;57358;51.094;6.760;2023-02-12T00:47:54;103321.31;;;6.01;100.00
70015;BME280;57358;51.094;6.760;2023-02-12T00:50:21;103354.44;;;6.11;100.00
70015;BME280;57358;51.094;6.760;2023-02-12T00:52:47;103323.91;;;5.99;100.00
70015;BME280;57358;51.094;6.760;2023-02-12T00:55:14;103266.22;;;5.65;100.00
70015;BME280;57358;51.094;6.760;2023-02-12T00:57:40;103262.72;;;5.63;100.00
70015;BME280;57358;51.094;6.760;2023-02-12T01:00:07;103316.06;;;5.96;100.00
70015;BME280;57358;51.094;6.760;2023-02-12T01:02:33;103330.06;;;6.06;100.00
70015;BME280;57358;51.094;6.760;2023-02-12T01:05:00;103329.19;;;6.04;100.00
70015;BME280;57358;51.094;6.760;2023-02-12T01:07:26;103330.91;;;6.03;100.00
70015;BME280;57358;51.094;6.760;2023-02-12T01:09:53;103330.91;;;6.03;100.00
70015;BME280;57358;51.094;6.760;2023-02-12T01:12:19;103323.97;;;6.05;100.00
70015;BME280;57358;51.094;6.760;2023-02-12T01:14:46;103202.38;;;5.18;100.00
70015;BME280;57358;51.094;6.760;2023-02-12T01:17:12;103326.53;;;5.97;100.00
70015;BME280;57358;51.094;6.760;2023-02-12T01:19:38;103192.56;;;4.93;100.00
70015;BME280;57358;51.094;6.760;2023-02-12T01:22:05;103288.94;;;5.75;100.00
70015;BME280;57358;51.094;6.760;2023-02-12T01:24:31;103311.69;;;5.93;100.00
70015;BME280;57358;51.094;6.760;2023-02-12T01:26:58;103302.06;;;5.89;100.00
70015;BME280;57358;51.094;6.760;2023-02-12T01:29:24;103297.69;;;5.85;100.00
70015;BME280;57358;51.094;6.760;2023-02-12T01:31:51;103144.81;;;4.88;100.00
70015;BME280;57358;51.094;6.760;2023-02-12T01:34:17;103156.28;;;5.07;100.00
70015;BME280;57358;51.094;6.760;2023-02-12T01:36:44;103316.97;;;5.98;100.00
70015;BME280;57358;51.094;6.760;2023-02-12T01:39:11;103232.13;;;5.40;100.00
70015;BME280;57358;51.094;6.760;2023-02-12T01:41:43;103320.41;;;5.95;100.00
70015;BME280;57358;51.094;6.760;2023-02-12T01:46:40;103271.41;;;5.62;100.00
70015;BME280;57358;51.094;6.760;2023-02-12T01:49:13;103303.69;;;5.76;100.00
70015;BME280;57358;51.094;6.760;2023-02-12T01:51:43;103281.84;;;5.65;100.00
70015;BME280;57358;51.094;6.760;2023-02-12T01:54:12;103295.00;;;5.79;100.00
70015;BME280;57358;51.094;6.760;2023-02-12T01:56:40;103314.22;;;5.89;100.00
70015;BME280;57358;51.094;6.760;2023-02-12T01:59:07;103293.16;;;5.64;100.00
70015;BME280;57358;51.094;6.760;2023-02-12T02:01:34;103321.19;;;5.90;100.00
70015;BME280;57358;51.094;6.760;2023-02-12T02:04:22;103318.56;;;5.88;100.00
70015;BME280;57358;51.094;6.760;2023-02-12T02:07:00;103306.28;;;5.75;100.00
70015;BME280;57358;51.094;6.760;2023-02-12T02:09:30;103322.03;;;5.87;100.00
70015;BME280;57358;51.094;6.760;2023-02-12T02:11:56;103316.78;;;5.83;100.00
70015;BME280;57358;51.094;6.760;2023-02-12T02:14:42;103325.50;;;5.89;100.00
70015;BME280;57358;51.094;6.760;2023-02-12T02:17:31;103329.88;;;5.90;100.00
70015;BME280;57358;51.094;6.760;2023-02-12T02:22:38;103315.06;;;5.85;100.00
70015;BME280;57358;51.094;6.760;2023-02-12T02:28:05;103311.53;;;5.81;100.00
70015;BME280;57358;51.094;6.760;2023-02-12T02:30:43;103318.56;;;5.88;100.00
70015;BME280;57358;51.094;6.760;2023-02-12T02:36:12;103269.66;;;5.58;100.00
70015;BME280;57358;51.094;6.760;2023-02-12T02:43:56;103219.91;;;5.35;100.00
70015;BME280;57358;51.094;6.760;2023-02-12T02:46:30;103253.81;;;5.41;100.00
70015;BME280;57358;51.094;6.760;2023-02-12T02:49:01;103232.16;;;5.44;100.00
70015;BME280;57358;51.094;6.760;2023-02-12T02:51:31;103303.81;;;5.90;100.00
70015;BME280;57358;51.094;6.760;2023-02-12T02:54:14;103274.97;;;5.70;100.00
70015;BME280;57358;51.094;6.760;2023-02-12T02:56:44;103305.56;;;5.90;100.00
70015;BME280;57358;51.094;6.760;2023-02-12T02:59:15;103294.19;;;5.80;100.00
70015;BME280;57358;51.094;6.760;2023-02-12T03:02:22;103311.63;;;5.90;100.00
70015;BME280;57358;51.094;6.760;2023-02-12T03:04:54;103252.25;;;5.57;100.00
70015;BME280;57358;51.094;6.760;2023-02-12T03:07:46;103276.69;;;5.68;100.00
70015;BME280;57358;51.094;6.760;2023-02-12T03:10:45;103309.00;;;5.87;100.00
70015;BME280;57358;51.094;6.760;2023-02-12T03:13:24;103315.06;;;5.86;100.00
70015;BME280;57358;51.094;6.760;2023-02-12T03:16:03;103306.38;;;5.84;100.00
70015;BME280;57358;51.094;6.760;2023-02-12T03:18:36;103317.66;;;5.85;100.00
70015;BME280;57358;51.094;6.760;2023-02-12T03:21:11;103314.16;;;5.83;100.00
70015;BME280;57358;51.094;6.760;2023-02-12T03:23:43;103315.03;;;5.82;100.00
70015;BME280;57358;51.094;6.760;2023-02-12T03:26:15;103293.25;;;5.76;100.00
70015;BME280;57358;51.094;6.760;2023-02-12T03:28:46;103305.47;;;5.82;100.00
70015;BME280;57358;51.094;6.760;2023-02-12T03:36:44;103232.13;;;5.40;100.00
70015;BME280;57358;51.094;6.760;2023-02-12T03:42:29;103302.00;;;5.82;100.00
70015;BME280;57358;51.094;6.760;2023-02-12T03:50:41;103258.34;;;5.56;100.00
70015;BME280;57358;51.094;6.760;2023-02-12T03:53:11;103235.59;;;5.41;100.00
70015;BME280;57358;51.094;6.760;2023-02-12T03:55:41;103255.63;;;5.47;100.00
70015;BME280;57358;51.094;6.760;2023-02-12T03:58:11;103300.25;;;5.80;100.00
70015;BME280;57358;51.094;6.760;2023-02-12T04:00:39;103262.69;;;5.55;100.00
70015;BME280;57358;51.094;6.760;2023-02-12T04:03:06;103281.84;;;5.65;100.00
70015;BME280;57358;51.094;6.760;2023-02-12T04:05:32;103302.00;;;5.82;100.00
70015;BME280;57358;51.094;6.760;2023-02-12T04:08:01;103305.47;;;5.82;100.00
70015;BME280;57358;51.094;6.760;2023-02-12T04:10:44;103278.44;;;5.69;100.00
70015;BME280;57358;51.094;6.760;2023-02-12T04:13:36;103309.00;;;5.86;100.00
70015;BME280;57358;51.094;6.760;2023-02-12T04:16:29;103268.72;;;5.54;100.00
70015;BME280;57358;51.094;6.760;2023-02-12T04:18:59;103283.56;;;5.62;100.00
70015;BME280;57358;51.094;6.760;2023-02-12T04:27:39;103266.78;;;5.33;100.00
70015;BME280;57358;51.094;6.760;2023-02-12T04:32:52;103328.78;;;5.68;100.00
70015;BME280;57358;51.094;6.760;2023-02-12T04:35:29;103321.75;;;5.59;100.00
70015;BME280;57358;51.094;6.760;2023-02-12T04:38:03;103270.13;;;5.23;100.00
70015;BME280;57358;51.094;6.760;2023-02-12T04:40:31;103243.91;;;5.06;100.00
70015;BME280;57358;51.094;6.760;2023-02-12T04:42:58;103344.34;;;5.60;100.00
70015;BME280;57358;51.094;6.760;2023-02-12T04:45:27;103350.41;;;5.61;100.00
70015;BME280;57358;51.094;6.760;2023-02-12T04:47:54;103260.38;;;5.05;100.00
70015;BME280;57358;51.094;6.760;2023-02-12T04:50:21;103344.28;;;5.54;100.00
70015;BME280;57358;51.094;6.760;2023-02-12T04:52:47;103336.38;;;5.48;100.00
70015;BME280;57358;51.094;6.760;2023-02-12T04:55:14;103016.63;;;3.53;100.00
70015;BME280;57358;51.094;6.760;2023-02-12T04:57:40;103353.66;;;5.40;100.00
70015;BME280;57358;51.094;6.760;2023-02-12T05:00:14;103286.22;;;4.90;100.00
70015;BME280;57358;51.094;6.760;2023-02-12T05:02:40;103338.63;;;5.17;100.00
70015;BME280;57358;51.094;6.760;2023-02-12T05:05:07;103315.13;;;5.13;100.00
70015;BME280;57358;51.094;6.760;2023-02-12T05:07:33;103274.94;;;4.91;100.00
70015;BME280;57358;51.094;6.760;2023-02-12T05:10:00;103253.03;;;4.73;100.00
70015;BME280;57358;51.094;6.760;2023-02-12T05:12:26;103305.56;;;5.12;100.00
70015;BME280;57358;51.094;6.760;2023-02-12T05:14:53;103312.59;;;5.17;100.00
70015;BME280;57358;51.094;6.760;2023-02-12T05:17:22;103349.34;;;5.42;100.00
70015;BME280;57358;51.094;6.760;2023-02-12T05:19:49;103348.50;;;5.45;100.00
70015;BME280;57358;51.094;6.760;2023-02-12T05:22:15;103344.16;;;5.47;100.00
70015;BME280;57358;51.094;6.760;2023-02-12T05:24:42;103344.22;;;5.50;100.00
70015;BME280;57358;51.094;6.760;2023-02-12T05:27:08;103281.28;;;5.13;100.00
70015;BME280;57358;51.094;6.760;2023-02-12T05:29:35;103343.44;;;5.55;100.00
70015;BME280;57358;51.094;6.760;2023-02-12T05:32:02;103249.09;;;5.06;100.00
70015;BME280;57358;51.094;6.760;2023-02-12T05:34:29;103338.28;;;5.62;100.00
70015;BME280;57358;51.094;6.760;2023-02-12T05:36:55;103277.13;;;5.29;100.00
70015;BME280;57358;51.094;6.760;2023-02-12T05:39:22;103340.09;;;5.69;100.00
70015;BME280;57358;51.094;6.760;2023-02-12T05:41:49;103242.25;;;5.11;100.00
70015;BME280;57358;51.094;6.760;2023-02-12T05:44:15;103269.31;;;5.26;100.00
70015;BME280;57358;51.094;6.760;2023-02-12T05:46:42;103352.22;;;5.67;100.00
70015;BME280;57358;51.094;6.760;2023-02-12T05:49:09;103331.22;;;5.53;100.00
70015;BME280;57358;51.094;6.760;2023-02-12T05:51:36;103360.91;;;5.67;100.00
70015;BME280;57358;51.094;6.760;2023-02-12T05:54:04;103327.81;;;5.55;100.00
70015;BME280;57358;51.094;6.760;2023-02-12T05:56:42;103336.50;;;5.59;100.00
70015;BME280;57358;51.094;6.760;2023-02-12T05:59:27;103312.81;;;5.39;100.00
70015;BME280;57358;51.094;6.760;2023-02-12T06:01:54;103253.41;;;5.03;100.00
70015;BME280;57358;51.094;6.760;2023-02-12T06:04:23;103337.22;;;5.44;100.00
70015;BME280;57358;51.094;6.760;2023-02-12T06:06:51;103344.34;;;5.62;100.00
70015;BME280;57358;51.094;6.760;2023-02-12T06:09:17;103362.69;;;5.73;100.00
70015;BME280;57358;51.094;6.760;2023-02-12T06:11:44;103352.97;;;5.56;100.00
70015;BME280;57358;51.094;6.760;2023-02-12T06:14:16;103360.91;;;5.66;100.00
70015;BME280;57358;51.094;6.760;2023-02-12T06:16:46;103368.72;;;5.66;100.00
70015;BME280;57358;51.094;6.760;2023-02-12T06:19:13;103351.34;;;5.66;100.00
70015;BME280;57358;51.094;6.760;2023-02-12T06:21:40;103362.63;;;5.64;100.00
70015;BME280;57358;51.094;6.760;2023-02-12T06:24:07;103334.50;;;5.36;100.00
70015;BME280;57358;51.094;6.760;2023-02-12T06:26:33;103365.88;;;5.46;100.00
70015;BME280;57358;51.094;6.760;2023-02-12T06:29:00;103330.91;;;5.27;100.00
70015;BME280;57358;51.094;6.760;2023-02-12T06:31:29;103359.72;;;5.40;100.00
70015;BME280;57358;51.094;6.760;2023-02-12T06:33:58;103163.03;;;4.19;100.00
70015;BME280;57358;51.094;6.760;2023-02-12T06:36:28;103372.72;;;5.39;100.00
70015;BME280;57358;51.094;6.760;2023-02-12T06:38:54;103309.84;;;5.05;100.00
70015;BME280;57358;51.094;6.760;2023-02-12T06:41:22;103371.88;;;5.40;100.00
70015;BME280;57358;51.094;6.760;2023-02-12T06:43:49;103326.47;;;5.18;100.00
70015;BME280;57358;51.094;6.760;2023-02-12T06:46:16;103376.19;;;5.36;100.00
70015;BME280;57358;51.094;6.760;2023-02-12T06:48:43;103364.84;;;5.31;100.00
70015;BME280;57358;51.094;6.760;2023-02-12T06:51:12;103294.72;;;4.78;100.00
70015;BME280;57358;51.094;6.760;2023-02-12T06:53:39;103356.72;;;5.08;100.00
70015;BME280;57358;51.094;6.760;2023-02-12T06:56:08;103388.34;;;5.37;100.00
70015;BME280;57358;51.094;6.760;2023-02-12T06:58:40;103194.16;;;4.16;100.00
70015;BME280;57358;51.094;6.760;2023-02-12T07:06:41;103349.00;;;5.16;100.00
70015;BME280;57358;51.094;6.760;2023-02-12T07:09:08;103279.91;;;4.74;100.00
70015;BME280;57358;51.094;6.760;2023-02-12T07:11:35;103387.53;;;5.43;100.00
70015;BME280;57358;51.094;6.760;2023-02-12T07:14:03;103354.16;;;5.13;100.00
70015;BME280;57358;51.094;6.760;2023-02-12T07:16:30;103361.25;;;5.22;100.00
70015;BME280;57358;51.094;6.760;2023-02-12T07:18:56;103351.63;;;5.19;100.00
70015;BME280;57358;51.094;6.760;2023-02-12T07:21:25;103393.75;;;5.51;100.00
70015;BME280;57358;51.094;6.760;2023-02-12T07:23:52;103263.34;;;4.66;100.00
70015;BME280;57358;51.094;6.760;2023-02-12T07:26:20;103375.28;;;5.34;100.00
70015;BME280;57358;51.094;6.760;2023-02-12T07:28:47;103403.25;;;5.51;100.00
70015;BME280;57358;51.094;6.760;2023-02-12T07:31:16;103403.28;;;5.52;100.00
70015;BME280;57358;51.094;6.760;2023-02-12T07:33:44;103410.25;;;5.55;100.00
70015;BME280;57358;51.094;6.760;2023-02-12T07:36:17;103405.94;;;5.57;100.00
70015;BME280;57358;51.094;6.760;2023-02-12T07:38:43;103406.00;;;5.60;100.00
70015;BME280;57358;51.094;6.760;2023-02-12T07:41:16;103394.56;;;5.49;100.00
70015;BME280;57358;51.094;6.760;2023-02-12T07:43:45;103340.50;;;5.28;100.00
70015;BME280;57358;51.094;6.760;2023-02-12T07:46:14;103409.53;;;5.67;100.00
70015;BME280;57358;51.094;6.760;2023-02-12T07:48:42;103403.47;;;5.66;100.00
70015;BME280;57358;51.094;6.760;2023-02-12T07:51:11;103346.59;;;5.33;100.00
70015;BME280;57358;51.094;6.760;2023-02-12T07:53:39;103317.72;;;5.13;100.00
70015;BME280;57358;51.094;6.760;2023-02-12T07:56:07;103243.53;;;4.77;100.00
70015;BME280;57358;51.094;6.760;2023-02-12T07:58:35;103401.84;;;5.79;100.00
70015;BME280;57358;51.094;6.760;2023-02-12T08:01:12;103408.94;;;5.91;100.00
70015;BME280;57358;51.094;6.760;2023-02-12T08:03:38;103373.06;;;5.67;100.00
70015;BME280;57358;51.094;6.760;2023-02-12T08:06:21;103389.75;;;5.84;100.00
70015;BME280;57358;51.094;6.760;2023-02-12T08:08:56;103414.34;;;6.05;100.00
70015;BME280;57358;51.094;6.760;2023-02-12T08:11:24;103343.44;;;5.58;100.00
70015;BME280;57358;51.094;6.760;2023-02-12T08:13:51;103408.28;;;6.09;100.00
70015;BME280;57358;51.094;6.760;2023-02-12T08:16:20;103424.06;;;6.19;100.00
70015;BME280;57358;51.094;6.760;2023-02-12T08:18:47;103413.69;;;6.26;100.00
70015;BME280;57358;51.094;6.760;2023-02-12T08:21:25;103425.00;;;6.26;100.00
70015;BME280;57358;51.094;6.760;2023-02-12T08:23:56;103414.56;;;6.26;100.00
70015;BME280;57358;51.094;6.760;2023-02-12T08:26:32;103395.38;;;6.19;100.00
70015;BME280;57358;51.094;6.760;2023-02-12T08:29:01;103373.56;;;6.10;100.00
70015;BME280;57358;51.094;6.760;2023-02-12T08:31:31;103354.22;;;5.92;100.00
70015;BME280;57358;51.094;6.760;2023-02-12T08:33:59;103412.88;;;6.30;100.00
70015;BME280;57358;51.094;6.760;2023-02-12T08:36:34;103418.16;;;6.39;100.00
70015;BME280;57358;51.094;6.760;2023-02-12T08:39:01;103418.16;;;6.37;100.00
70015;BME280;57358;51.094;6.760;2023-02-12T08:41:28;103400.72;;;6.35;100.00
70015;BME280;57358;51.094;6.760;2023-02-12T08:44:00;103403.44;;;6.47;100.00
70015;BME280;57358;51.094;6.760;2023-02-12T08:46:29;103412.31;;;6.68;100.00
70015;BME280;57358;51.094;6.760;2023-02-12T08:48:59;103405.28;;;6.59;100.00
70015;BME280;57358;51.094;6.760;2023-02-12T08:51:28;103334.59;;;6.28;100.00
70015;BME280;57358;51.094;6.760;2023-02-12T08:53:59;103374.81;;;6.55;100.00
70015;BME280;57358;51.094;6.760;2023-02-12T08:56:28;103416.78;;;6.87;100.00
70015;BME280;57358;51.094;6.760;2023-02-12T08:58:59;103370.50;;;6.60;100.00
70015;BME280;57358;51.094;6.760;2023-02-12T09:01:27;103389.81;;;6.84;100.00
70015;BME280;57358;51.094;6.760;2023-02-12T09:03:55;103413.34;;;6.93;100.00
70015;BME280;57358;51.094;6.760;2023-02-12T09:06:23;103422.19;;;7.10;100.00
70015;BME280;57358;51.094;6.760;2023-02-12T09:08:50;103226.69;;;6.08;100.00
70015;BME280;57358;51.094;6.760;2023-02-12T09:11:20;103255.56;;;6.38;100.00
70015;BME280;57358;51.094;6.760;2023-02-12T09:13:49;103421.41;;;7.28;100.00
70015;BME280;57358;51.094;6.760;2023-02-12T09:16:16;103426.66;;;7.30;100.00
70015;BME280;57358;51.094;6.760;2023-02-12T09:18:42;103435.38;;;7.35;100.00
70015;BME280;57358;51.094;6.760;2023-02-12T09:21:12;103424.97;;;7.43;100.00
70015;BME280;57358;51.094;6.760;2023-02-12T09:23:41;103419.75;;;7.47;100.00
70015;BME280;57358;51.094;6.760;2023-02-12T09:26:12;103425.91;;;7.54;100.00
70015;BME280;57358;51.094;6.760;2023-02-12T09:28:40;103423.22;;;7.40;100.00
70015;BME280;57358;51.094;6.760;2023-02-12T09:31:27;103430.28;;;7.63;100.00
70015;BME280;57358;51.094;6.760;2023-02-12T09:33:58;103356.03;;;7.17;100.00
70015;BME280;57358;51.094;6.760;2023-02-12T09:36:25;103349.06;;;7.15;100.00
70015;BME280;57358;51.094;6.760;2023-02-12T09:38:51;103351.66;;;7.13;100.00
70015;BME280;57358;51.094;6.760;2023-02-12T09:41:26;103442.50;;;7.71;100.00
70015;BME280;57358;51.094;6.760;2023-02-12T09:44:16;103393.56;;;7.32;100.00
70015;BME280;57358;51.094;6.760;2023-02-12T09:46:52;103453.84;;;7.72;100.00
70015;BME280;57358;51.094;6.760;2023-02-12T09:49:44;103451.25;;;7.75;100.00
70015;BME280;57358;51.094;6.760;2023-02-12T09:52:18;103396.19;;;7.36;100.00
70015;BME280;57358;51.094;6.760;2023-02-12T09:54:46;103352.56;;;7.12;100.00
70015;BME280;57358;51.094;6.760;2023-02-12T10:00:06;103464.34;;;7.84;100.00
70015;BME280;57358;51.094;6.760;2023-02-12T10:02:38;103460.00;;;7.85;100.00
70015;BME280;57358;51.094;6.760;2023-02-12T10:05:14;103453.03;;;7.82;100.00
70015;BME280;57358;51.094;6.760;2023-02-12T10:07:58;103377.03;;;7.33;100.00
70015;BME280;57358;51.094;6.760;2023-02-12T10:13:21;103454.81;;;7.97;100.00
70015;BME280;57358;51.094;6.760;2023-02-12T10:18:45;103392.00;;;7.74;100.00
70015;BME280;57358;51.094;6.760;2023-02-12T10:26:51;103399.84;;;7.83;100.00
70015;BME280;57358;51.094;6.760;2023-02-12T10:29:26;103228.84;;;6.87;100.00
70015;BME280;57358;51.094;6.760;2023-02-12T10:31:57;103469.72;;;8.35;100.00
70015;BME280;57358;51.094;6.760;2023-02-12T10:34:31;103392.06;;;7.98;100.00
70015;BME280;57358;51.094;6.760;2023-02-12T10:39:44;103461.06;;;8.61;100.00
70015;BME280;57358;51.094;6.760;2023-02-12T10:44:55;103444.47;;;8.48;100.00
70015;BME280;57358;51.094;6.760;2023-02-12T10:47:23;103453.22;;;8.68;100.00
70015;BME280;57358;51.094;6.760;2023-02-12T10:49:57;103449.72;;;8.71;100.00
70015;BME280;57358;51.094;6.760;2023-02-12T10:52:44;103451.44;;;8.55;100.00
70015;BME280;57358;51.094;6.760;2023-02-12T10:55:24;103447.09;;;8.68;100.00
70015;BME280;57358;51.094;6.760;2023-02-12T10:57:52;103428.78;;;8.65;100.00
70015;BME280;57358;51.094;6.760;2023-02-12T11:00:28;103437.50;;;8.73;100.00
70015;BME280;57358;51.094;6.760;2023-02-12T11:05:42;103445.34;;;8.94;100.00
70015;BME280;57358;51.094;6.760;2023-02-12T11:08:34;103451.44;;;9.01;100.00
70015;BME280;57358;51.094;6.760;2023-02-12T11:11:03;103443.59;;;8.96;100.00
70015;BME280;57358;51.094;6.760;2023-02-12T11:13:31;103399.97;;;8.72;100.00
70015;BME280;57358;51.094;6.760;2023-02-12T11:15:58;103398.22;;;8.88;100.00
70015;BME280;57358;51.094;6.760;2023-02-12T11:18:29;103433.06;;;9.21;100.00
70015;BME280;57358;51.094;6.760;2023-02-12T11:21:05;103428.66;;;9.28;100.00
70015;BME280;57358;51.094;6.760;2023-02-12T11:28:35;103422.50;;;9.50;100.00
70015;BME280;57358;51.094;6.760;2023-02-12T11:33:39;103402.28;;;9.71;100.00
70015;BME280;57358;51.094;6.760;2023-02-12T11:36:23;103390.97;;;9.58;100.00
70015;BME280;57358;51.094;6.760;2023-02-12T11:38:56;103406.75;;;9.56;100.00
70015;BME280;57358;51.094;6.760;2023-02-12T11:44:09;103387.34;;;9.82;100.00
70015;BME280;57358;51.094;6.760;2023-02-12T11:46:37;103329.00;;;9.52;100.00
70015;BME280;57358;51.094;6.760;2023-02-12T11:49:06;103376.06;;;9.72;100.00
70015;BME280;57358;51.094;6.760;2023-02-12T11:51:35;103267.19;;;9.05;100.00
70015;BME280;57358;51.094;6.760;2023-02-12T11:54:03;103362.09;;;9.70;100.00
70015;BME280;57358;51.094;6.760;2023-02-12T11:56:44;103356.91;;;9.59;100.00
70015;BME280;57358;51.094;6.760;2023-02-12T11:59:30;103370.81;;;9.71;100.00
70015;BME280;57358;51.094;6.760;2023-02-12T12:02:02;103319.25;;;9.74;100.00
70015;BME280;57358;51.094;6.760;2023-02-12T12:04:32;103293.09;;;9.57;100.00
70015;BME280;57358;51.094;6.760;2023-02-12T12:07:04;103286.00;;;9.76;100.00
70015;BME280;57358;51.094;6.760;2023-02-12T12:12:49;103317.19;;;10.12;99.62
70015;BME280;57358;51.094;6.760;2023-02-12T12:15:42;103289.28;;;10.03;99.06
70015;BME280;57358;51.094;6.760;2023-02-12T12:18:42;103291.84;;;10.11;98.28
70015;BME280;57358;51.094;6.760;2023-02-12T12:22:02;103206.53;;;9.65;95.80
70015;BME280;57358;51.094;6.760;2023-02-12T12:24:52;103278.69;;;10.15;95.46
70015;BME280;57358;51.094;6.760;2023-02-12T12:27:39;103208.25;;;9.69;95.03
70015;BME280;57358;51.094;6.760;2023-02-12T12:30:40;103242.34;;;9.68;95.38
70015;BME280;57358;51.094;6.760;2023-02-12T12:36:01;103191.81;;;9.49;95.83
70015;BME280;57358;51.094;6.760;2023-02-12T12:44:35;103230.84;;;9.87;93.03
70015;BME280;57358;51.094;6.760;2023-02-12T12:49:36;103204.38;;;10.12;90.46
70015;BME280;57358;51.094;6.760;2023-02-12T12:58:13;103173.94;;;9.95;88.93
70015;BME280;57358;51.094;6.760;2023-02-12T13:01:02;103146.06;;;9.85;88.83
70015;BME280;57358;51.094;6.760;2023-02-12T13:03:48;103164.28;;;9.99;87.97
70015;BME280;57358;51.094;6.760;2023-02-12T13:06:31;103153.72;;;10.05;86.66
70015;BME280;57358;51.094;6.760;2023-02-12T13:11:38;102965.28;;;8.85;87.65
70015;BME280;57358;51.094;6.760;2023-02-12T13:14:22;103152.88;;;10.02;87.96
70015;BME280;57358;51.094;6.760;2023-02-12T13:16:59;103105.91;;;9.77;87.90
70015;BME280;57358;51.094;6.760;2023-02-12T13:25:33;103091.94;;;9.76;87.95
70015;BME280;57358;51.094;6.760;2023-02-12T13:28:04;103103.38;;;9.68;89.29
70015;BME280;57358;51.094;6.760;2023-02-12T13:30:47;103113.84;;;9.71;90.57
70015;BME280;57358;51.094;6.760;2023-02-12T13:33:21;103091.25;;;9.57;90.95
70015;BME280;57358;51.094;6.760;2023-02-12T13:35:52;103144.94;;;10.08;90.70
70015;BME280;57358;51.094;6.760;2023-02-12T13:38:27;103102.19;;;9.98;89.02
70015;BME280;57358;51.094;6.760;2023-02-12T13:41:00;103130.88;;;10.13;88.75
70015;BME280;57358;51.094;6.760;2023-02-12T13:46:33;103129.88;;;10.25;87.87
70015;BME280;57358;51.094;6.760;2023-02-12T13:54:52;103116.94;;;10.10;89.15
70015;BME280;57358;51.094;6.760;2023-02-12T13:57:21;103015.16;;;9.65;89.05
70015;BME280;57358;51.094;6.760;2023-02-12T13:59:52;103062.75;;;10.06;88.61
70015;BME280;57358;51.094;6.760;2023-02-12T14:02:41;103100.97;;;10.31;87.82
70015;BME280;57358;51.094;6.760;2023-02-12T14:05:27;103093.16;;;10.24;87.92
70015;BME280;57358;51.094;6.760;2023-02-12T14:07:58;103081.88;;;10.15;88.43
70015;BME280;57358;51.094;6.760;2023-02-12T14:10:40;103070.63;;;10.04;87.64
70015;BME280;57358;51.094;6.760;2023-02-12T14:13:14;103098.38;;;10.27;87.67
70015;BME280;57358;51.094;6.760;2023-02-12T14:15:47;102975.97;;;9.51;87.66
70015;BME280;57358;51.094;6.760;2023-02-12T14:18:42;103091.63;;;10.04;88.08
70015;BME280;57358;51.094;6.760;2023-02-12T14:23:40;103097.75;;;10.05;88.65
70015;BME280;57358;51.094;6.760;2023-02-12T14:26:16;103090.03;;;9.91;88.87
70015;BME280;57358;51.094;6.760;2023-02-12T14:33:47;103075.25;;;9.82;90.62
70015;BME280;57358;51.094;6.760;2023-02-12T14:41:27;103111.81;;;10.01;91.32
70015;BME280;57358;51.094;6.760;2023-02-12T14:46:54;103100.63;;;9.83;92.12
70015;BME280;57358;51.094;6.760;2023-02-12T14:54:58;103056.50;;;9.34;96.87
70015;BME280;57358;51.094;6.760;2023-02-12T14:57:37;103134.78;;;9.77;97.83
70015;BME280;57358;51.094;6.760;2023-02-12T15:02:56;103108.06;;;9.36;100.00
70015;BME280;57358;51.094;6.760;2023-02-12T15:05:28;103089.06;;;9.08;100.00
70015;BME280;57358;51.094;6.760;2023-02-12T15:08:07;103136.03;;;9.30;100.00
70015;BME280;57358;51.094;6.760;2023-02-12T15:10:54;103161.31;;;9.37;100.00
70015;BME280;57358;51.094;6.760;2023-02-12T15:13:45;103116.13;;;9.07;100.00
70015;BME280;57358;51.094;6.760;2023-02-12T15:16:21;103163.09;;;9.33;100.00
70015;BME280;57358;51.094;6.760;2023-02-12T15:18:58;103122.25;;;9.05;100.00
70015;BME280;57358;51.094;6.760;2023-02-12T15:21:27;103072.69;;;8.75;100.00
70015;BME280;57358;51.094;6.760;2023-02-12T15:24:07;103163.13;;;9.27;100.00
70015;BME280;57358;51.094;6.760;2023-02-12T15:26:46;103124.06;;;8.98;100.00
70015;BME280;57358;51.094;6.760;2023-02-12T15:29:37;103167.53;;;9.25;100.00
70015;BME280;57358;51.094;6.760;2023-02-12T15:32:12;103130.97;;;9.08;100.00
70015;BME280;57358;51.094;6.760;2023-02-12T15:34:40;103171.00;;;9.29;100.00